Martín León

Recruteur en chef - Mallorca
4 Déc 2028
Lundi
Processus

Personnalité

Adaptabilité (15) Ambition (1) Controverse (5) Loyauté (11) Pression (12) Professionnalisme (4) Sportivité (12) Tempérament (16)

Profil

Style d'entraînement Démocratique
Diplôme Continental Pro
Détermination 11
Gestion des joueurs 13
Motivation 10
Discipline 12
Satisfaction professionnelle
100%
Fatigue
0%
Rôle Recruteur en chef
Salaire 67.1K p/s
Contrat 14.03.2030

Performance

Comportement Bon
Efficacité de l'entraînement
48%
Développement des joueurs
25%
Prévention des blessures
40%
Mise en place tactique
65%

Événements récents

A participé à une réunion de recrutement maintenant
A recommandé une cible de transfert maintenant
A participé à une réunion de recrutement 7j
A recommandé une cible de transfert 7j
A recommandé une cible de transfert 7j
A observé un match 7j
A recommandé une cible de transfert 14j
A observé un match 14j

Suivi en cours

152
Joueur Club Statut Capacité Confiance Observé Dernière observation Dernier vote
Ayden Heaven Portsmouth Actif 157 / 160 40% 3 01.08.2028 -
Daniel Banjaqui Benfica Actif 130 / 129 40% 3 01.08.2028 -
Tyler Fletcher Rotherham United Négociation 123 / 120 40% 2 24.07.2028 -
Lautaro Dufur Juventud Actif 99 / 108 40% 1 24.07.2028 -
Riquelme Thompson-Jones Accrington Stanley Actif 119 / 117 40% 2 10.07.2028 -
Trey Nyoni Rotherham United Actif 132 / 145 40% 2 10.07.2028 -
Giovanni Leoni Lincoln City Actif 134 / 147 40% 6 26.06.2028 -
Andrija Bulatović Chamois Niortais Négociation 131 / 140 40% 3 26.06.2028 -
Marc Bernal Sevilla Actif 144 / 149 40% 5 19.06.2028 -
Martim Cunha Porto Actif 115 / 110 40% 1 08.06.2028 -
Tobías Ramírez River Plate Perdu 142 / 138 40% 2 01.06.2028 -
Héctor Fort Real Sociedad Actif 140 / 145 40% 9 31.05.2028 -
Andrea Cogoni Cosenza Actif 102 / 114 40% 1 31.05.2028 -
Celías Ingenthron Platense Actif 104 / 117 40% 2 30.05.2028 -
Josh Nichols Oldham Athletic Actif 131 / 129 40% 4 30.05.2028 -
Bernardo Lima Porto Actif 109 / 117 40% 2 24.05.2028 -
Konta Ismaily Actif 93 / 111 40% 1 23.05.2028 -
Jorthy Mokio ADO Den Haag Actif 125 / 136 40% 3 18.05.2028 -
Pau Cubarsí Real Sociedad Actif 156 / 167 40% 7 13.05.2028 -
Lucas Høgsberg RC Strasbourg Actif 137 / 149 40% 2 12.05.2028 -
Hervin Goyes Deportivo Pasto Actif 112 / 102 40% 2 11.05.2028 -
Jan Bürger Northampton Town Actif 114 / 129 40% 1 09.05.2028 -
Honest Ahanor Atalanta Actif 130 / 140 40% 3 06.05.2028 -
Jorge Salinas Racing Santander Actif 141 / 134 40% 2 05.05.2028 -
Pape Diong Westerlo Actif 115 / 132 40% 1 02.05.2028 -
Cheveyo Tsawa Club Brugge Actif 135 / 136 40% 1 27.04.2028 -
Christos Mouzakitis Hull City Actif 139 / 142 40% 2 16.04.2028 -
Lamine Bèye Portimonense Actif 119 / 115 40% 1 16.04.2028 -
Kauã Moraes Flamengo Actif 135 / 128 40% 4 10.04.2028 -
Colin Guske Orlando City Actif 86 / 86 40% 2 24.01.2028 -
Nazareno Roselli Defensa y Justicia Actif 120 / 133 40% 3 18.01.2028 -
Agustín Obregón River Plate Actif 107 / 122 40% 3 10.01.2028 -
Francisco Marchant Colo-Colo Actif 102 / 115 40% 1 31.12.2027 -
Josh Acheampong Everton Actif 143 / 138 40% 3 29.12.2027 -
Jeremías Merlo Gimnasia La Plata Actif 116 / 139 40% 1 27.12.2027 -
Esquerdinha Notts County Actif 121 / 133 40% 1 27.12.2027 -
Juan Manuel Villalba Tigre Actif 120 / 129 40% 3 25.12.2027 -
Victor Hernandez Santa Fe Actif 136 / 116 40% 11 25.12.2027 -
Nicolás Barros Schelotto Gimnasia La Plata Actif 125 / 126 40% 1 24.12.2027 -
Luka Andrade Montevideo City Torque Actif 91 / 114 40% 2 23.12.2027 -
Edison Gruezo Guadalajara Actif 114 / 128 40% 1 23.12.2027 -
Zahir Ibarra Defensa y Justicia Actif 98 / 116 40% 3 20.12.2027 -
Timoteo Chamorro Talleres Actif 94 / 109 40% 1 20.12.2027 -
Hugo Rojas Instituto Actif 105 / 102 40% 2 15.12.2027 -
Santiago Colidio Liepaja Actif 101 / 109 40% 2 12.12.2027 -
Valentino Acuña Newell's Old Boys Actif 119 / 132 40% 1 11.12.2027 -
Giovanni Baroni Talleres Actif 105 / 119 40% 1 11.12.2027 -
Luciano Posadas Central Córdoba SdE Actif 98 / 91 40% 1 09.12.2027 -
Archie Gray Southampton Actif 157 / 159 40% 3 26.11.2027 -
Felipe Faúndez O'Higgins Actif 107 / 121 40% 4 25.11.2027 -
Nahuel Leivas Montevideo City Torque Actif 92 / 112 40% 6 24.11.2027 -
Alejandro Almaraz NK Celje Actif 110 / 126 40% 3 23.11.2027 -
Matias Siltanen Malmo FF Actif 126 / 118 40% 5 23.11.2027 -
Olaniyi Saheed Kwara United Actif 89 / 96 40% 3 22.11.2027 -
Samuel Martín Millonarios Actif 111 / 108 40% 1 16.11.2027 -
Adrian Skogmar Malmo FF Actif 100 / 106 40% 1 31.10.2027 -
Lucas Bergvall Tottenham Actif 153 / 148 40% 1 29.10.2027 -
Juan Morán Godoy Cruz Actif 111 / 113 40% 1 29.10.2027 -
Björn Hedlöf Helsingborg Actif 98 / 118 40% 1 24.10.2027 -
Facundo Balatti Penarol Actif 118 / 105 40% 1 17.10.2027 -
Mohamed Moussa Koïta Mathare United Actif 97 / 105 40% 1 12.10.2027 -
Ulises Giménez River Plate Actif 98 / 121 40% 1 11.10.2027 -
Caleb Yirenkyi Coventry City Actif 144 / 144 40% 1 09.10.2027 -
Erick Sánchez RC Lens Actif 139 / 139 68% 1 01.06.2027 -
Manu Koné AS Roma Actif 160 / 159 40% 9 30.05.2027 -
Mats Wieffer Brighton Actif 142 / 147 40% 1 30.05.2027 -
Quinten Timber Crystal Palace Actif 158 / 159 40% 1 27.05.2027 -
Ilaix Moriba Celta Actif 152 / 158 40% 1 26.05.2027 -
Ousmane Diomande Nottingham Forest Actif 150 / 153 40% 1 26.05.2027 -
Jesús Vázquez Valencia Actif 131 / 145 40% 2 25.05.2027 -
Carlos Romero Villarreal Actif 155 / 148 40% 4 23.05.2027 -
Tino Livramento Newcastle United Actif 149 / 150 40% 1 23.05.2027 -
Omar El Hilali Espanyol Actif 147 / 160 51% 4 22.05.2027 -
Arnau Martínez Valencia Actif 154 / 151 40% 3 22.05.2027 -
Flavien-Enzo Boyomo Osasuna Actif 148 / 158 40% 2 20.05.2027 -
Shea Charles Southampton Actif 144 / 141 40% 1 20.05.2027 -
Alex Scott Bournemouth Actif 150 / 157 40% 2 19.05.2027 -
Pau Navarro Villarreal Actif 149 / 154 40% 1 19.05.2027 -
Amadou Onana Aston Villa Actif 148 / 154 40% 5 16.05.2027 -
Dinis Rodrigues Napoli Actif 100 / 112 40% 2 16.05.2027 -
Erik Lira Cruz Azul Actif 122 / 140 40% 5 13.05.2027 -
Yehor Yarmoliuk Brentford Actif 155 / 146 40% 2 11.05.2027 -
Lucien Agoumé Sevilla Actif 154 / 152 40% 4 08.05.2027 -
Ryan Sessegnon Fulham Actif 137 / 154 40% 2 08.05.2027 -
Ian Maatsen Aston Villa Actif 143 / 159 40% 2 07.05.2027 -
Jarrad Branthwaite Everton Actif 158 / 157 40% 2 06.05.2027 -
Javi Guerra Valencia Actif 138 / 153 40% 2 06.05.2027 -
Santiago Mouriño Villarreal Actif 145 / 138 40% 2 05.05.2027 -
André Wolverhampton Actif 148 / 142 40% 1 03.05.2027 -
Lewis Hall Newcastle United Actif 145 / 161 40% 3 02.05.2027 -
Brooke Norton-Cuffy Hull City Actif 147 / 128 40% 1 30.04.2027 -
Leo Castledine Middlesbrough Actif 132 / 134 40% 2 29.04.2027 -
Jake O'Brien Everton Actif 138 / 141 40% 1 29.04.2027 -
Evan N'Dicka AS Roma Actif 160 / 153 40% 1 27.04.2027 -
Prosper Peter Olympique Lyonnais Actif 102 / 128 40% 4 26.04.2027 -
Agustín Ruberto River Plate Actif 132 / 111 40% 2 26.04.2027 -
Óscar Mingueza Crystal Palace Actif 146 / 155 40% 3 26.04.2027 -
Richard Ledezma Guadalajara Actif 118 / 123 40% 1 26.04.2027 -
Fran García Betis Actif 151 / 148 40% 3 24.04.2027 -
Bright Arrey-Mbi Braga Actif 140 / 142 40% 1 24.04.2027 -
Raoul Bellanova Atalanta Actif 148 / 156 40% 1 22.04.2027 -
Federico Pereira Toulouse FC Actif 128 / 130 40% 1 20.04.2027 -
Aitor Paredes Athletic Bilbao Actif 143 / 150 40% 1 19.04.2027 -
Urko González Espanyol Actif 136 / 133 40% 3 16.04.2027 -
Florentino Luís Ipswich Town Actif 152 / 145 40% 3 15.04.2027 -
Rafael Moreno Atletico Venezuela Actif 115 / 107 40% 1 14.04.2027 -
Senny Mayulu Paris Saint-Germain Actif 140 / 159 40% 1 13.04.2027 -
Naledi Hlongwane Wa All Stars Actif 104 / 98 40% 3 11.04.2027 -
George Brown Sheffield Wednesday Actif 105 / 100 40% 1 11.04.2027 -
José Ángel Carmona Sevilla Actif 157 / 150 40% 3 09.04.2027 -
Eduardo Lozano Botafogo Actif 129 / 148 40% 1 09.04.2027 -
James Garner Everton Actif 142 / 158 40% 1 05.04.2027 -
Sven Botman Newcastle United Actif 166 / 163 40% 2 04.04.2027 -
Rocco Vata Watford Actif 124 / 119 40% 1 02.04.2027 -
Mathys Tel Tottenham Actif 147 / 147 40% 2 28.03.2027 -
Mateus Mané Burnley Actif 123 / 145 40% 1 28.03.2027 -
Dani Vivian Athletic Bilbao Actif 162 / 150 40% 1 26.03.2027 -
Javi Rodríguez Celta Actif 145 / 141 40% 1 24.03.2027 -
Sayed Abu Farchi Maccabi Tel Aviv Actif 130 / 139 40% 1 24.03.2027 -
Lorenzo De Leo Renate Actif 89 / 97 40% 1 23.03.2027 -
Carlos Espí Real Madrid Actif 114 / 127 40% 1 23.03.2027 -
Matvii Ponomarenko Dynamo Kyiv Actif 116 / 112 40% 1 21.03.2027 -
Antonio Blanco Alavés Actif 132 / 140 40% 2 18.03.2027 -
Sam Amo-Ameyaw RC Strasbourg Actif 125 / 138 40% 1 18.03.2027 -
Roberto Iliev Slavia Sofia Actif 104 / 85 40% 1 18.03.2027 -
Kike Salas Sevilla Actif 144 / 145 40% 1 16.03.2027 -
Boubacar Kamara Aston Villa Actif 166 / 169 40% 2 15.03.2027 -
Habib Diarra Sunderland Actif 136 / 150 40% 1 14.03.2027 -
Jeff Ekhator Juventus Actif 132 / 143 40% 1 10.03.2027 -
Ramón Juárez Club America Actif 128 / 148 40% 1 10.03.2027 -
Jacob Greaves Ipswich Town Actif 132 / 125 40% 2 07.03.2027 -
Cristian Uribe Monaco Actif 147 / 145 40% 1 07.03.2027 -
Mohamed Belloumi Hull City Actif 133 / 134 67% 1 01.01.2027 Approuver
Roberto Fernández Braga Actif 152 / 133 40% 2 30.12.2026 -
Pau Víctor Braga Actif 152 / 140 40% 3 29.12.2026 -
Diego López Valencia Actif 138 / 143 40% 1 29.12.2026 -
Giacomo Raspadori Atalanta Actif 159 / 144 40% 1 28.12.2026 -
Alejandro Piedrahita Deportivo Pereira Actif 143 / 133 40% 1 23.12.2026 -
Ivo Mammini Beitar Jerusalem Actif 104 / 124 40% 1 21.12.2026 -
Oihan Sancet Athletic Bilbao Actif 148 / 165 40% 1 21.12.2026 -
Wilson Isidor Sunderland Actif 146 / 131 40% 1 19.12.2026 -
Alexander Díaz Deportivo Riestra Actif 114 / 114 40% 1 17.12.2026 -
Carlos Álvarez Club America Actif 135 / 152 40% 1 16.12.2026 -
Nico Williams Athletic Bilbao Actif 162 / 157 40% 1 14.12.2026 -
Juan Bisanz Huracán Actif 141 / 129 40% 1 12.12.2026 -
Andrés Martín Racing Santander Actif 139 / 131 40% 1 09.12.2026 -
Duk Atlas Actif 126 / 124 40% 1 09.12.2026 -
Isaac Romero Sevilla Actif 134 / 146 40% 1 09.12.2026 -
Juanmi Latasa Valladolid Actif 134 / 129 40% 1 08.12.2026 -
Sampson Dweh Mallorca Actif 133 / 134 66% 1 24.08.2026 Approuver
Kiko Femenía Getafe Actif 139 / 130 51% 1 24.08.2026 -
Lautaro Gutiérrez Belgrano Actif 94 / 95 40% 1 01.08.2026 -